Time;durP1;ratioP1;P1;durP2;ratioP2;P2;SDS_P1;SDS_P2;PMS_P1;PMS_P2;Temp;Humidity;BMP_temperature;BMP_pressure;BME280_temperature;BME280_humidity;BME280_pressure;Samples;Min_cycle;Max_cycle;Signal;HPM_P1;HPM_P2
2023/03/31 00:01:22;;;;;;;8.70;2.05;;;10.90;99.90;;;;;;5023439;28;20183;-87
2023/03/31 00:03:48;;;;;;;4.88;1.88;;;10.90;99.90;;;;;;5023034;28;20186;-87
2023/03/31 00:06:18;;;;;;;5.40;2.00;;;10.90;99.90;;;;;;5015057;28;20184;-88
2023/03/31 00:08:50;;;;;;;6.32;1.70;;;10.90;99.90;;;;;;5026011;28;20204;-91
2023/03/31 00:11:20;;;;;;;7.90;1.67;;;11.00;99.90;;;;;;5037765;28;20178;-88
2023/03/31 00:13:46;;;;;;;1.77;1.58;;;11.00;99.90;;;;;;5027720;28;20346;-86
2023/03/31 00:16:12;;;;;;;4.35;1.70;;;11.00;99.90;;;;;;5017049;28;20204;-88
2023/03/31 00:18:46;;;;;;;9.50;1.90;;;11.00;99.90;;;;;;5016486;28;20187;-89
2023/03/31 00:21:28;;;;;;;6.35;1.88;;;10.90;99.90;;;;;;5025538;28;20250;-86
2023/03/31 00:24:08;;;;;;;7.22;1.80;;;10.90;99.90;;;;;;5026909;28;20190;-88
2023/03/31 00:26:34;;;;;;;7.53;2.58;;;10.80;99.90;;;;;;5036577;28;20248;-88
2023/03/31 00:29:01;;;;;;;10.38;2.20;;;10.80;99.90;;;;;;5027586;28;20598;-87
2023/03/31 00:31:29;;;;;;;4.88;1.58;;;10.80;99.90;;;;;;5028915;28;20186;-88
2023/03/31 00:33:55;;;;;;;7.80;1.90;;;10.70;99.90;;;;;;5027544;28;20187;-86
2023/03/31 00:36:26;;;;;;;6.65;2.00;;;10.60;99.90;;;;;;5016196;28;20175;-88
2023/03/31 00:39:07;;;;;;;4.55;2.00;;;10.60;99.90;;;;;;5021378;28;20621;-87
2023/03/31 00:41:36;;;;;;;10.27;2.10;;;10.60;99.90;;;;;;5036226;28;20234;-87
2023/03/31 00:44:25;;;;;;;9.20;1.90;;;10.50;99.90;;;;;;5026658;28;20190;-87
2023/03/31 00:47:01;;;;;;;9.55;2.00;;;10.40;99.90;;;;;;4997752;28;20634;-87
2023/03/31 00:49:40;;;;;;;6.55;1.95;;;10.40;99.90;;;;;;5032393;28;20190;-87
2023/03/31 00:52:20;;;;;;;5.22;1.55;;;10.30;99.90;;;;;;5027013;28;20267;-86
2023/03/31 00:54:49;;;;;;;8.23;1.80;;;10.30;99.90;;;;;;5015236;28;20191;-86
2023/03/31 00:57:16;;;;;;;6.15;1.73;;;10.40;99.90;;;;;;5017264;28;20175;-86
2023/03/31 00:59:50;;;;;;;6.03;1.70;;;10.30;99.90;;;;;;5026800;28;20186;-86
2023/03/31 01:02:21;;;;;;;5.93;1.77;;;10.40;99.90;;;;;;5017732;28;20256;-86
2023/03/31 01:04:53;;;;;;;4.70;1.52;;;10.40;99.90;;;;;;5035757;28;20179;-87
2023/03/31 01:07:46;;;;;;;6.15;1.40;;;10.40;99.90;;;;;;5019333;28;20566;-86
2023/03/31 01:10:12;;;;;;;10.95;2.22;;;10.40;99.90;;;;;;5005786;28;20193;-87
2023/03/31 01:12:41;;;;;;;6.78;1.80;;;10.40;99.90;;;;;;5017579;28;20187;-86
2023/03/31 01:15:08;;;;;;;4.80;1.65;;;10.40;99.90;;;;;;5010016;28;20186;-87
2023/03/31 01:17:54;;;;;;;4.72;2.00;;;10.40;99.90;;;;;;5036959;28;20174;-89
2023/03/31 01:20:28;;;;;;;11.20;1.83;;;10.40;99.90;;;;;;5004200;28;20186;-87
2023/03/31 01:23:35;;;;;;;8.18;1.50;;;10.50;99.90;;;;;;5004961;28;20186;-87
2023/03/31 01:26:00;;;;;;;6.53;1.63;;;10.40;99.90;;;;;;5019367;28;20253;-89
2023/03/31 01:28:26;;;;;;;7.47;1.77;;;10.40;99.90;;;;;;5035128;28;20713;-87
2023/03/31 01:31:27;;;;;;;5.82;1.70;;;10.50;99.90;;;;;;5000737;28;20179;-89
2023/03/31 01:34:34;;;;;;;3.72;1.33;;;10.50;99.90;;;;;;5016229;28;20308;-89
2023/03/31 01:37:36;;;;;;;3.60;1.08;;;10.50;99.90;;;;;;5431157;22;20234;-89
2023/03/31 01:40:27;;;;;;;4.60;1.88;;;10.50;99.90;;;;;;5016598;28;20229;-85
2023/03/31 01:43:05;;;;;;;6.68;1.30;;;10.50;99.90;;;;;;5000753;28;20237;-88
2023/03/31 01:45:46;;;;;;;5.45;1.30;;;10.50;99.90;;;;;;4998480;28;20198;-87
2023/03/31 01:48:20;;;;;;;3.88;1.42;;;10.50;99.90;;;;;;4998138;28;20215;-87
2023/03/31 01:50:54;;;;;;;4.05;1.58;;;10.50;99.90;;;;;;5015817;28;20250;-88
2023/03/31 01:53:24;;;;;;;4.70;1.58;;;10.60;99.90;;;;;;4998039;28;20187;-87
2023/03/31 01:56:06;;;;;;;4.45;1.40;;;10.50;99.90;;;;;;5016704;28;20171;-89
2023/03/31 01:58:51;;;;;;;4.50;1.20;;;10.50;99.90;;;;;;4998717;28;20203;-87
2023/03/31 02:01:25;;;;;;;3.58;1.13;;;10.50;99.90;;;;;;4998876;28;20225;-89
2023/03/31 02:04:02;;;;;;;4.80;1.55;;;10.50;99.90;;;;;;4998607;28;20179;-86
2023/03/31 02:06:34;;;;;;;5.22;1.40;;;10.50;99.90;;;;;;4997415;28;20521;-88
2023/03/31 02:09:04;;;;;;;4.85;1.33;;;10.50;99.90;;;;;;5014796;28;20179;-88
2023/03/31 02:11:32;;;;;;;3.70;1.10;;;10.40;99.90;;;;;;4997980;28;20225;-87
2023/03/31 02:14:00;;;;;;;3.70;1.20;;;10.40;99.90;;;;;;5015446;28;20179;-88
2023/03/31 02:16:29;;;;;;;3.72;1.33;;;10.40;99.90;;;;;;4998441;28;20237;-89
2023/03/31 02:19:01;;;;;;;3.88;1.27;;;10.40;99.90;;;;;;5015450;28;20505;-88
2023/03/31 02:21:30;;;;;;;5.55;1.10;;;10.40;99.90;;;;;;4998024;28;20527;-87
2023/03/31 02:23:57;;;;;;;8.07;1.73;;;10.40;99.90;;;;;;5014401;28;20274;-87
2023/03/31 02:26:27;;;;;;;4.45;1.40;;;10.50;99.90;;;;;;5013972;28;20195;-87
2023/03/31 02:28:53;;;;;;;6.40;1.20;;;10.50;99.90;;;;;;4996968;28;20190;-88
2023/03/31 02:31:34;;;;;;;7.43;1.73;;;10.40;99.90;;;;;;5015642;28;20175;-85
2023/03/31 02:34:00;;;;;;;3.08;1.05;;;10.40;99.90;;;;;;4997634;28;20186;-86
2023/03/31 02:36:26;;;;;;;5.63;1.40;;;10.30;99.90;;;;;;5015587;28;20225;-90
2023/03/31 02:39:01;;;;;;;3.78;1.08;;;10.20;99.90;;;;;;5014906;28;20235;-86
2023/03/31 02:41:27;;;;;;;4.93;1.20;;;10.20;99.90;;;;;;5018512;28;20201;-88
2023/03/31 02:43:52;;;;;;;5.93;1.30;;;10.10;99.90;;;;;;5035350;28;20183;-86
2023/03/31 02:46:18;;;;;;;5.25;1.27;;;10.00;99.90;;;;;;5031699;28;20622;-88
2023/03/31 02:48:48;;;;;;;5.90;1.30;;;10.00;99.90;;;;;;4997670;28;20614;-88
2023/03/31 02:51:22;;;;;;;4.75;1.25;;;10.00;99.90;;;;;;5014901;28;20269;-87
2023/03/31 02:54:20;;;;;;;4.00;1.10;;;9.90;99.90;;;;;;5014305;28;20175;-88
2023/03/31 02:57:13;;;;;;;4.38;1.25;;;9.80;99.90;;;;;;5014071;28;20167;-88
2023/03/31 02:59:45;;;;;;;4.10;0.88;;;9.80;99.90;;;;;;5015063;28;20613;-86
2023/03/31 03:02:28;;;;;;;4.65;1.70;;;9.90;99.90;;;;;;5014051;28;20191;-90
2023/03/31 03:05:00;;;;;;;4.80;0.98;;;9.80;99.90;;;;;;4997869;28;20194;-88
2023/03/31 03:07:46;;;;;;;9.07;1.08;;;9.80;99.90;;;;;;5015455;28;20583;-88
2023/03/31 03:10:32;;;;;;;4.30;1.13;;;9.80;99.90;;;;;;4976660;28;20201;-88
2023/03/31 03:13:13;;;;;;;3.53;1.00;;;9.70;99.90;;;;;;5012790;28;20209;-88
2023/03/31 03:15:46;;;;;;;8.02;1.38;;;9.80;99.90;;;;;;5014314;28;20652;-87
2023/03/31 03:18:13;;;;;;;3.08;1.10;;;9.80;99.90;;;;;;5012706;28;20191;-87
2023/03/31 03:20:41;;;;;;;4.10;1.08;;;9.80;99.90;;;;;;4996371;28;20179;-86
2023/03/31 03:23:07;;;;;;;4.05;1.33;;;9.70;99.90;;;;;;5011971;28;20175;-86
2023/03/31 03:25:33;;;;;;;4.95;1.05;;;9.60;99.90;;;;;;5014185;28;20175;-89
2023/03/31 03:27:58;;;;;;;5.45;1.30;;;9.60;99.90;;;;;;5030456;28;20206;-88
2023/03/31 03:30:24;;;;;;;3.53;1.25;;;9.50;99.90;;;;;;5034006;28;20612;-88
2023/03/31 03:32:50;;;;;;;4.60;1.02;;;9.50;99.90;;;;;;5018079;28;20523;-88
2023/03/31 03:35:16;;;;;;;6.05;1.20;;;9.40;99.90;;;;;;5013394;28;20190;-89
2023/03/31 03:37:42;;;;;;;2.58;1.13;;;9.50;99.90;;;;;;5013795;28;20689;-87
2023/03/31 03:40:10;;;;;;;7.45;1.38;;;9.50;99.90;;;;;;5014928;28;20175;-89
2023/03/31 03:42:37;;;;;;;5.80;1.58;;;9.50;99.90;;;;;;5014431;28;20242;-89
2023/03/31 03:45:03;;;;;;;2.50;1.02;;;9.50;99.90;;;;;;5014263;28;20190;-88
2023/03/31 03:47:28;;;;;;;8.18;1.58;;;9.50;99.90;;;;;;5014199;28;20203;-90
2023/03/31 03:49:54;;;;;;;3.30;1.20;;;9.50;99.90;;;;;;5012311;28;20207;-89
2023/03/31 03:52:20;;;;;;;5.07;1.30;;;9.50;99.90;;;;;;4996260;28;20276;-88
2023/03/31 03:54:46;;;;;;;6.13;1.40;;;9.50;99.90;;;;;;5013169;28;20179;-88
2023/03/31 03:57:11;;;;;;;4.18;1.17;;;9.60;99.90;;;;;;5014611;28;20186;-86
2023/03/31 03:59:38;;;;;;;3.13;0.95;;;9.50;99.90;;;;;;5005873;28;20207;-87
2023/03/31 04:02:03;;;;;;;4.50;1.30;;;9.50;99.90;;;;;;5005155;28;20186;-89
2023/03/31 04:04:29;;;;;;;2.58;1.10;;;9.60;99.90;;;;;;4996379;28;20534;-87
2023/03/31 04:06:55;;;;;;;3.30;1.42;;;9.60;99.90;;;;;;5013774;28;20203;-87
2023/03/31 04:09:20;;;;;;;6.28;1.50;;;9.50;99.90;;;;;;4995647;28;20179;-89
2023/03/31 04:11:46;;;;;;;7.35;1.30;;;9.60;99.90;;;;;;4996723;28;20175;-92
2023/03/31 04:14:12;;;;;;;3.65;1.20;;;9.60;99.90;;;;;;4995457;28;20625;-87
2023/03/31 04:16:39;;;;;;;2.17;1.00;;;9.70;99.90;;;;;;5013308;28;20175;-86
2023/03/31 04:19:05;;;;;;;3.25;1.00;;;9.70;99.90;;;;;;4994618;28;20171;-87
2023/03/31 04:21:33;;;;;;;5.88;1.40;;;9.80;99.90;;;;;;4996602;28;20574;-88
2023/03/31 04:24:06;;;;;;;2.70;1.03;;;9.80;99.90;;;;;;4977481;28;20239;-88
2023/03/31 04:26:41;;;;;;;5.07;1.25;;;9.80;99.90;;;;;;4980952;28;20241;-89
2023/03/31 04:29:09;;;;;;;5.32;1.20;;;9.80;99.90;;;;;;5014784;28;20171;-86
2023/03/31 04:31:37;;;;;;;3.38;1.08;;;9.70;99.90;;;;;;4991550;28;20183;-87
2023/03/31 04:34:05;;;;;;;4.45;1.40;;;9.70;99.90;;;;;;4993361;28;20183;-85
2023/03/31 04:36:32;;;;;;;6.63;1.27;;;9.70;99.90;;;;;;5013481;28;20198;-89
2023/03/31 04:38:59;;;;;;;5.20;1.40;;;9.60;99.90;;;;;;5011615;28;20285;-84
2023/03/31 04:41:28;;;;;;;5.75;1.70;;;9.50;99.90;;;;;;5011954;28;20187;-86
2023/03/31 04:43:54;;;;;;;8.57;1.45;;;9.50;99.90;;;;;;5013345;28;20497;-86
2023/03/31 04:46:20;;;;;;;4.47;1.40;;;9.50;99.90;;;;;;5012307;28;20197;-88
2023/03/31 04:48:46;;;;;;;5.15;1.48;;;9.50;99.90;;;;;;5013664;28;20171;-89
2023/03/31 04:51:16;;;;;;;8.38;1.95;;;9.50;99.90;;;;;;5011194;28;20240;-88
2023/03/31 04:53:41;;;;;;;9.23;1.80;;;9.40;99.90;;;;;;5014527;28;20369;-86
2023/03/31 04:56:07;;;;;;;5.50;1.80;;;9.40;99.90;;;;;;4996921;28;20607;-88
2023/03/31 04:58:32;;;;;;;7.57;1.97;;;9.40;99.90;;;;;;5009283;28;20594;-89
2023/03/31 05:00:59;;;;;;;5.63;2.08;;;9.40;99.90;;;;;;5016374;28;20195;-87
2023/03/31 05:03:25;;;;;;;5.83;1.60;;;9.30;99.90;;;;;;5015937;28;20567;-84
2023/03/31 05:05:50;;;;;;;5.78;1.90;;;9.30;99.90;;;;;;5012280;28;20192;-87
2023/03/31 05:08:16;;;;;;;7.10;1.50;;;9.20;99.90;;;;;;4997468;28;20219;-87
2023/03/31 05:10:48;;;;;;;8.68;1.80;;;9.20;99.90;;;;;;5011719;28;20183;-85
2023/03/31 05:13:14;;;;;;;3.95;1.13;;;9.20;99.90;;;;;;5015900;28;20180;-87
2023/03/31 05:15:40;;;;;;;9.27;1.60;;;9.20;99.90;;;;;;5013955;28;20195;-87
2023/03/31 05:18:06;;;;;;;6.93;1.80;;;9.20;99.90;;;;;;5016774;28;20191;-86
2023/03/31 05:20:35;;;;;;;4.88;1.38;;;9.20;99.90;;;;;;5015086;28;20628;-88
2023/03/31 05:23:00;;;;;;;4.70;1.00;;;9.20;99.90;;;;;;5015366;28;20233;-87
2023/03/31 05:25:31;;;;;;;5.65;1.30;;;9.20;99.90;;;;;;5015312;28;20262;-88
2023/03/31 05:27:58;;;;;;;5.18;1.23;;;9.20;99.90;;;;;;5016871;28;20203;-89
2023/03/31 05:30:34;;;;;;;3.85;1.00;;;9.20;99.90;;;;;;5014793;28;20180;-89
2023/03/31 05:33:00;;;;;;;7.35;1.50;;;9.30;99.90;;;;;;5014359;28;20183;-87
2023/03/31 05:35:26;;;;;;;5.15;1.10;;;9.40;99.90;;;;;;5015861;28;20529;-88
2023/03/31 05:37:51;;;;;;;4.85;1.30;;;9.40;99.90;;;;;;5016090;28;20223;-87
2023/03/31 05:40:17;;;;;;;3.50;1.48;;;9.50;99.90;;;;;;5014955;28;20253;-88
2023/03/31 05:42:43;;;;;;;2.78;1.38;;;9.50;99.90;;;;;;5016326;28;20187;-86
2023/03/31 05:45:09;;;;;;;2.50;0.90;;;9.60;99.90;;;;;;5015967;28;20249;-88
2023/03/31 05:47:34;;;;;;;2.45;1.30;;;9.60;99.90;;;;;;4998896;28;20215;-88
2023/03/31 05:50:00;;;;;;;5.50;1.02;;;9.60;99.90;;;;;;4998103;28;20172;-83
2023/03/31 05:52:26;;;;;;;4.55;1.23;;;9.70;99.90;;;;;;4998039;28;20609;-88
2023/03/31 05:54:52;;;;;;;4.82;1.17;;;9.70;99.90;;;;;;5015812;28;20190;-88
2023/03/31 05:57:17;;;;;;;2.33;1.00;;;9.80;99.90;;;;;;4998567;28;20278;-87
2023/03/31 05:59:43;;;;;;;4.35;1.15;;;9.80;99.90;;;;;;5015499;28;20171;-87
2023/03/31 06:02:12;;;;;;;4.03;1.17;;;9.80;99.90;;;;;;4997623;28;20274;-84
2023/03/31 06:04:38;;;;;;;4.80;1.42;;;9.90;99.90;;;;;;5015203;28;20182;-87
2023/03/31 06:07:04;;;;;;;5.85;1.42;;;9.90;99.90;;;;;;4997481;28;20658;-87
2023/03/31 06:09:30;;;;;;;7.88;1.23;;;9.90;99.90;;;;;;4998181;28;20274;-88
2023/03/31 06:12:03;;;;;;;4.32;1.33;;;9.90;99.90;;;;;;4997657;28;20622;-88
2023/03/31 06:14:29;;;;;;;5.97;1.10;;;9.90;99.90;;;;;;5015947;28;20503;-89
2023/03/31 06:16:54;;;;;;;7.82;1.52;;;9.90;99.90;;;;;;5016327;28;20172;-89
2023/03/31 06:19:20;;;;;;;7.60;1.75;;;9.90;99.90;;;;;;4997651;28;20193;-86
2023/03/31 06:21:46;;;;;;;4.80;1.15;;;10.00;99.90;;;;;;5013938;28;20183;-87
2023/03/31 06:24:11;;;;;;;7.32;1.63;;;10.00;99.90;;;;;;5028542;28;20258;-86
2023/03/31 06:26:37;;;;;;;3.65;1.10;;;9.90;99.90;;;;;;4998123;28;20269;-87
2023/03/31 06:29:03;;;;;;;6.25;1.70;;;10.00;99.90;;;;;;5015775;28;20179;-86
2023/03/31 06:31:31;;;;;;;10.88;1.83;;;10.00;99.90;;;;;;5015008;28;20266;-87
2023/03/31 06:33:57;;;;;;;4.28;1.50;;;10.10;99.90;;;;;;4997385;28;20194;-87
2023/03/31 06:36:23;;;;;;;10.00;1.52;;;10.00;99.90;;;;;;5015532;28;20179;-89
2023/03/31 06:38:49;;;;;;;4.95;1.42;;;10.10;99.90;;;;;;5013343;28;20615;-87
2023/03/31 06:41:17;;;;;;;5.40;1.45;;;10.10;99.90;;;;;;4997124;28;20507;-89
2023/03/31 06:43:43;;;;;;;4.53;1.45;;;10.10;99.90;;;;;;4997597;28;20610;-87
2023/03/31 06:46:09;;;;;;;6.45;1.50;;;10.10;99.90;;;;;;4997159;28;20273;-88
2023/03/31 06:48:35;;;;;;;7.88;1.73;;;10.10;99.90;;;;;;4998008;28;20297;-88
2023/03/31 06:51:06;;;;;;;4.30;1.42;;;10.20;99.90;;;;;;5019988;28;20182;-88
2023/03/31 06:53:32;;;;;;;5.30;1.73;;;10.20;99.90;;;;;;4996764;28;20217;-87
2023/03/31 06:55:58;;;;;;;10.07;1.58;;;10.20;99.90;;;;;;5014470;28;20244;-87
2023/03/31 06:58:24;;;;;;;5.13;1.27;;;10.30;99.90;;;;;;5015796;28;20221;-88
2023/03/31 07:00:51;;;;;;;5.97;1.38;;;10.30;99.90;;;;;;5014827;28;20615;-86
2023/03/31 07:03:17;;;;;;;3.47;1.13;;;10.40;99.90;;;;;;5014371;28;20262;-87
2023/03/31 07:05:51;;;;;;;4.22;1.20;;;10.40;99.90;;;;;;5011432;28;20186;-84
2023/03/31 07:08:17;;;;;;;8.23;1.75;;;10.50;99.90;;;;;;5015170;28;20218;-91
2023/03/31 07:10:47;;;;;;;7.82;1.52;;;10.50;99.90;;;;;;5015073;28;20179;-88
2023/03/31 07:13:16;;;;;;;3.10;1.17;;;10.50;99.90;;;;;;5013355;28;20254;-86
2023/03/31 07:15:43;;;;;;;5.45;1.65;;;10.50;99.90;;;;;;5015075;28;20297;-92
2023/03/31 07:18:09;;;;;;;5.53;1.55;;;10.60;99.90;;;;;;4996175;28;20183;-83
2023/03/31 07:20:35;;;;;;;5.03;1.50;;;10.60;99.90;;;;;;5014798;28;20186;-88
2023/03/31 07:23:04;;;;;;;5.50;1.05;;;10.70;99.90;;;;;;4996506;28;20187;-86
2023/03/31 07:25:31;;;;;;;4.80;1.10;;;10.70;99.90;;;;;;5014659;28;20199;-87
2023/03/31 07:27:57;;;;;;;7.15;1.50;;;10.80;99.90;;;;;;5012165;28;20217;-84
2023/03/31 07:30:23;;;;;;;3.45;1.20;;;10.80;99.90;;;;;;5014163;28;20537;-86
2023/03/31 07:32:56;;;;;;;3.40;0.95;;;10.80;99.90;;;;;;5013775;28;20233;-87
2023/03/31 07:35:22;;;;;;;4.35;1.17;;;10.80;99.90;;;;;;4996094;28;20257;-86
2023/03/31 07:37:49;;;;;;;3.75;1.20;;;10.90;99.90;;;;;;5014229;28;20227;-88
2023/03/31 07:40:24;;;;;;;2.42;1.33;;;10.90;99.90;;;;;;5013231;28;20180;-88
2023/03/31 07:42:51;;;;;;;5.75;1.40;;;11.00;99.90;;;;;;4996471;28;20190;-87
2023/03/31 07:45:18;;;;;;;5.28;1.58;;;10.90;99.90;;;;;;4995651;28;20222;-87
2023/03/31 07:47:45;;;;;;;7.40;1.65;;;11.00;99.90;;;;;;4995402;28;20624;-86
2023/03/31 07:50:11;;;;;;;3.75;1.50;;;11.00;99.90;;;;;;4996704;28;20529;-87
2023/03/31 07:52:40;;;;;;;3.42;1.25;;;11.00;99.90;;;;;;5013062;28;20178;-86
2023/03/31 07:55:07;;;;;;;4.43;1.33;;;11.00;99.90;;;;;;5013535;28;20202;-87
2023/03/31 07:57:33;;;;;;;5.72;1.65;;;11.00;99.90;;;;;;5013712;28;20171;-87
2023/03/31 07:59:59;;;;;;;4.00;1.23;;;11.10;99.90;;;;;;4996093;28;20175;-87
2023/03/31 08:02:25;;;;;;;4.68;1.50;;;10.90;99.90;;;;;;5013756;28;20669;-84
2023/03/31 08:04:51;;;;;;;4.13;0.95;;;10.90;99.90;;;;;;4994380;28;20198;-85
2023/03/31 08:07:16;;;;;;;3.35;1.10;;;10.90;99.90;;;;;;5013209;28;20212;-84
2023/03/31 08:09:45;;;;;;;6.03;1.40;;;10.90;99.90;;;;;;5012835;28;20191;-84
2023/03/31 08:12:11;;;;;;;4.88;1.00;;;10.90;99.90;;;;;;4993201;28;20190;-86
2023/03/31 08:14:37;;;;;;;4.03;1.10;;;11.00;99.90;;;;;;5014056;28;20182;-86
2023/03/31 08:17:03;;;;;;;3.80;1.10;;;11.00;99.90;;;;;;4996452;28;20618;-87
2023/03/31 08:19:28;;;;;;;3.97;1.38;;;11.00;99.90;;;;;;4996693;28;20183;-85
2023/03/31 08:21:54;;;;;;;5.80;1.48;;;11.00;99.90;;;;;;5013916;28;20197;-84
2023/03/31 08:24:20;;;;;;;6.65;1.20;;;11.00;99.90;;;;;;4996101;28;20217;-86
2023/03/31 08:26:45;;;;;;;3.47;1.00;;;11.00;99.90;;;;;;5013894;28;20175;-86
2023/03/31 08:29:11;;;;;;;5.90;1.42;;;10.90;99.90;;;;;;5015605;28;20175;-84
2023/03/31 08:31:37;;;;;;;3.60;1.35;;;10.90;99.90;;;;;;5017420;28;20172;-86
2023/03/31 08:34:04;;;;;;;6.47;1.27;;;10.90;99.90;;;;;;5017794;28;20186;-87
2023/03/31 08:36:30;;;;;;;4.85;1.45;;;11.00;99.90;;;;;;5000138;28;20183;-85
2023/03/31 08:38:56;;;;;;;4.30;1.25;;;11.00;99.90;;;;;;5032004;28;20757;-86
2023/03/31 08:41:58;;;;;;;6.22;1.10;;;11.10;99.90;;;;;;5016171;28;20206;-85
2023/03/31 08:44:37;;;;;;;5.47;1.00;;;11.20;99.90;;;;;;5012508;28;20183;-85
2023/03/31 08:47:06;;;;;;;5.53;1.27;;;11.20;99.90;;;;;;4997758;28;20254;-86
2023/03/31 08:49:49;;;;;;;3.28;1.15;;;11.30;99.90;;;;;;5012561;28;20665;-84
2023/03/31 08:52:22;;;;;;;2.83;1.05;;;11.30;99.90;;;;;;4997393;28;20207;-86
2023/03/31 08:54:56;;;;;;;5.05;1.20;;;11.40;99.90;;;;;;5013561;28;20172;-86
2023/03/31 08:57:29;;;;;;;5.20;1.33;;;11.50;99.90;;;;;;4997307;28;20238;-84
2023/03/31 08:59:57;;;;;;;5.72;1.23;;;11.50;99.90;;;;;;5012392;28;20172;-85
2023/03/31 09:02:41;;;;;;;7.07;1.75;;;11.60;99.90;;;;;;4997442;28;20199;-85
2023/03/31 09:05:16;;;;;;;6.95;1.30;;;11.60;99.90;;;;;;4997562;28;20207;-87
2023/03/31 09:07:45;;;;;;;4.35;1.10;;;11.70;99.90;;;;;;4996315;28;20223;-87
2023/03/31 09:10:41;;;;;;;5.25;1.15;;;11.70;99.90;;;;;;4997362;28;20172;-86
2023/03/31 09:13:30;;;;;;;3.92;1.10;;;11.60;99.90;;;;;;5006853;28;20188;-86
2023/03/31 09:16:37;;;;;;;4.88;1.13;;;11.60;99.90;;;;;;5016062;28;20501;-87
2023/03/31 09:19:10;;;;;;;3.15;1.02;;;11.70;99.90;;;;;;5032384;28;20198;-86
2023/03/31 09:21:50;;;;;;;6.45;1.20;;;11.70;99.90;;;;;;5016878;28;20243;-87
2023/03/31 09:24:46;;;;;;;3.63;1.02;;;11.70;99.90;;;;;;5016235;28;20186;-87
2023/03/31 09:27:13;;;;;;;5.13;1.08;;;11.70;99.90;;;;;;5015691;28;20217;-84
2023/03/31 09:29:48;;;;;;;4.78;1.25;;;11.70;99.90;;;;;;5015461;28;20202;-88
2023/03/31 09:32:23;;;;;;;2.40;1.00;;;11.60;99.90;;;;;;5015679;28;20179;-86
2023/03/31 09:34:57;;;;;;;3.40;1.00;;;11.60;99.90;;;;;;5016703;28;20175;-86
2023/03/31 09:37:28;;;;;;;2.25;1.00;;;11.70;99.90;;;;;;5015061;28;20242;-86
2023/03/31 09:39:55;;;;;;;3.30;0.88;;;11.60;99.90;;;;;;5016340;28;20167;-86
2023/03/31 09:42:20;;;;;;;3.53;1.15;;;11.60;99.90;;;;;;5016411;28;20218;-86
2023/03/31 09:44:48;;;;;;;3.33;0.88;;;11.70;99.90;;;;;;5016493;28;20796;-87
2023/03/31 09:47:42;;;;;;;1.52;0.80;;;11.70;99.90;;;;;;5016083;28;20187;-87
2023/03/31 09:50:12;;;;;;;6.00;1.05;;;11.70;99.90;;;;;;5013173;28;20195;-87
2023/03/31 09:52:59;;;;;;;4.50;1.25;;;11.70;99.90;;;;;;5016192;28;20182;-86
2023/03/31 09:55:51;;;;;;;5.28;1.20;;;11.60;99.90;;;;;;5015221;28;20175;-86
2023/03/31 09:58:17;;;;;;;7.50;1.92;;;11.60;99.90;;;;;;5014632;28;20854;-86
2023/03/31 10:01:05;;;;;;;4.68;1.00;;;11.60;99.90;;;;;;5015380;28;20286;-85
2023/03/31 10:03:35;;;;;;;2.63;0.80;;;11.60;99.90;;;;;;5015435;28;20199;-86
2023/03/31 10:06:08;;;;;;;4.22;1.15;;;11.50;99.90;;;;;;5014264;28;20275;-87
2023/03/31 10:08:41;;;;;;;2.75;1.05;;;11.50;99.90;;;;;;5015185;28;20246;-86
2023/03/31 10:11:11;;;;;;;3.33;1.00;;;11.50;99.90;;;;;;5015009;28;20167;-86
2023/03/31 10:14:14;;;;;;;3.50;0.93;;;11.50;99.90;;;;;;5015017;28;20605;-86
2023/03/31 10:16:48;;;;;;;4.22;1.08;;;11.50;99.90;;;;;;5014041;28;20179;-85
2023/03/31 10:19:23;;;;;;;4.88;1.20;;;11.50;99.90;;;;;;5014574;28;20168;-86
2023/03/31 10:21:57;;;;;;;1.50;0.75;;;11.50;99.90;;;;;;5013520;28;20175;-86
2023/03/31 10:24:35;;;;;;;2.28;1.00;;;11.40;99.90;;;;;;5013772;28;20564;-86
2023/03/31 10:27:01;;;;;;;2.80;1.17;;;11.40;99.90;;;;;;5014722;28;20624;-86
2023/03/31 10:29:33;;;;;;;3.28;1.02;;;11.30;99.90;;;;;;5014243;28;20732;-85
2023/03/31 10:32:17;;;;;;;6.25;1.50;;;11.20;99.90;;;;;;5013219;28;20705;-85
2023/03/31 10:34:43;;;;;;;2.03;1.08;;;11.10;99.90;;;;;;5013391;28;20221;-84
2023/03/31 10:37:21;;;;;;;3.92;1.52;;;11.10;99.90;;;;;;5014574;28;20227;-89
2023/03/31 10:39:48;;;;;;;5.40;1.48;;;11.10;99.90;;;;;;5014221;28;20167;-85
2023/03/31 10:42:21;;;;;;;6.20;1.33;;;11.00;99.90;;;;;;5014354;28;20199;-85
2023/03/31 10:44:48;;;;;;;4.18;1.30;;;10.90;99.90;;;;;;5014489;28;20187;-84
2023/03/31 10:47:18;;;;;;;3.70;1.30;;;10.90;99.90;;;;;;5014094;28;20230;-83
2023/03/31 10:49:46;;;;;;;3.40;1.45;;;10.90;99.90;;;;;;4997117;28;20225;-85
2023/03/31 10:52:21;;;;;;;4.18;1.48;;;10.80;99.90;;;;;;5013188;28;20254;-84
2023/03/31 10:54:51;;;;;;;4.57;1.88;;;10.70;99.90;;;;;;4996784;28;20269;-83
2023/03/31 10:57:23;;;;;;;3.50;0.90;;;10.70;99.90;;;;;;5014276;28;20681;-84
2023/03/31 10:59:57;;;;;;;3.75;1.20;;;10.70;99.90;;;;;;4996844;28;20844;-84
2023/03/31 11:02:47;;;;;;;3.38;1.02;;;10.60;99.90;;;;;;4996265;28;20178;-83
2023/03/31 11:05:35;;;;;;;3.95;1.13;;;10.60;99.90;;;;;;4995272;28;20199;-84
2023/03/31 11:08:17;;;;;;;3.63;1.10;;;10.50;99.90;;;;;;4996668;28;20218;-87
2023/03/31 11:11:21;;;;;;;2.08;1.02;;;10.50;99.90;;;;;;4996361;28;20257;-83
2023/03/31 11:14:06;;;;;;;2.97;1.05;;;10.40;99.90;;;;;;5013969;28;20178;-84
2023/03/31 11:16:49;;;;;;;2.40;1.00;;;10.40;99.90;;;;;;4996412;28;20182;-84
2023/03/31 11:19:28;;;;;;;4.72;1.55;;;10.30;99.90;;;;;;5013498;28;20163;-84
2023/03/31 11:22:20;;;;;;;3.75;1.00;;;10.30;99.90;;;;;;5013923;28;20168;-85
2023/03/31 11:25:05;;;;;;;3.40;1.10;;;10.30;99.90;;;;;;4996289;28;20171;-86
2023/03/31 11:27:50;;;;;;;2.83;0.90;;;10.30;99.90;;;;;;5014215;28;20253;-83
2023/03/31 11:30:35;;;;;;;7.22;1.23;;;10.20;99.90;;;;;;5013972;28;20163;-88
2023/03/31 11:33:18;;;;;;;3.40;0.95;;;10.20;99.90;;;;;;4996195;28;20577;-88
2023/03/31 11:36:03;;;;;;;3.20;1.00;;;10.20;99.90;;;;;;4996357;28;20492;-86
2023/03/31 11:39:02;;;;;;;1.08;0.70;;;10.10;99.90;;;;;;5008322;28;20241;-86
2023/03/31 11:41:37;;;;;;;2.85;1.00;;;10.10;99.90;;;;;;4990572;28;20187;-86
2023/03/31 11:44:08;;;;;;;6.93;1.13;;;10.10;99.90;;;;;;5012573;28;20163;-85
2023/03/31 11:46:53;;;;;;;3.65;1.30;;;10.10;99.90;;;;;;5013527;28;20175;-87
2023/03/31 11:49:22;;;;;;;3.28;1.08;;;10.10;99.90;;;;;;5013602;28;20175;-84
2023/03/31 11:52:14;;;;;;;2.33;0.90;;;10.10;99.90;;;;;;5013248;28;20176;-84
2023/03/31 11:54:54;;;;;;;2.80;1.15;;;10.10;99.90;;;;;;5010637;28;20618;-90
2023/03/31 11:57:40;;;;;;;4.07;0.98;;;10.10;99.90;;;;;;5013106;28;20191;-90
2023/03/31 12:00:07;;;;;;;4.15;0.95;;;10.00;99.90;;;;;;5014603;28;20653;-88
2023/03/31 12:03:06;;;;;;;3.17;0.80;;;10.10;99.90;;;;;;5013115;28;20190;-85
2023/03/31 12:05:39;;;;;;;3.03;0.93;;;10.00;99.90;;;;;;5017390;28;20801;-88
2023/03/31 12:08:21;;;;;;;1.88;0.80;;;10.10;99.90;;;;;;5017168;28;20647;-84
2023/03/31 12:11:13;;;;;;;2.85;0.90;;;10.10;99.90;;;;;;5017084;28;20171;-85
2023/03/31 12:13:55;;;;;;;1.52;0.80;;;10.10;99.90;;;;;;5017007;28;20233;-87
2023/03/31 12:16:36;;;;;;;5.50;1.00;;;10.20;99.90;;;;;;5017086;28;20514;-86
2023/03/31 12:19:15;;;;;;;4.00;0.85;;;10.30;99.90;;;;;;5017946;28;20266;-89
2023/03/31 12:21:47;;;;;;;1.38;0.80;;;10.30;99.90;;;;;;5018074;28;20618;-85
2023/03/31 12:24:13;;;;;;;2.70;0.75;;;10.30;99.90;;;;;;5016648;28;20175;-85
2023/03/31 12:27:02;;;;;;;1.58;0.90;;;10.30;99.90;;;;;;5016735;28;20274;-88
2023/03/31 12:29:45;;;;;;;1.95;0.82;;;10.20;99.90;;;;;;5016973;28;20184;-85
2023/03/31 12:32:35;;;;;;;2.30;0.75;;;10.20;99.90;;;;;;5016761;28;20194;-86
2023/03/31 12:35:34;;;;;;;2.20;0.90;;;10.20;99.90;;;;;;5017741;28;20167;-85
2023/03/31 12:38:33;;;;;;;3.28;0.80;;;10.20;99.90;;;;;;5016297;28;20231;-86
2023/03/31 12:41:06;;;;;;;0.95;0.70;;;10.30;99.90;;;;;;5017286;28;20163;-85
2023/03/31 12:44:00;;;;;;;1.23;0.70;;;10.30;99.90;;;;;;5016059;28;20622;-86
2023/03/31 12:46:49;;;;;;;3.60;0.90;;;10.30;99.90;;;;;;5016182;28;20186;-85
2023/03/31 12:49:41;;;;;;;2.03;0.95;;;10.40;99.90;;;;;;5017329;28;20171;-85
2023/03/31 12:52:19;;;;;;;1.60;0.80;;;10.40;99.90;;;;;;4985902;28;20724;-84
2023/03/31 12:55:08;;;;;;;1.52;0.80;;;10.40;99.90;;;;;;5017377;28;20250;-83
2023/03/31 12:57:34;;;;;;;1.27;0.80;;;10.50;99.90;;;;;;5015987;28;20175;-86
2023/03/31 13:00:16;;;;;;;2.40;0.70;;;10.50;99.90;;;;;;5017113;28;20171;-83
2023/03/31 13:02:42;;;;;;;2.92;1.13;;;10.60;99.90;;;;;;5015511;28;20187;-84
2023/03/31 13:05:36;;;;;;;2.63;1.13;;;10.60;99.90;;;;;;5016861;28;20179;-86
2023/03/31 13:08:03;;;;;;;2.63;1.00;;;10.60;99.90;;;;;;5016996;28;20207;-86
2023/03/31 13:10:30;;;;;;;2.05;0.93;;;10.60;99.90;;;;;;5015067;28;20637;-86
2023/03/31 13:13:11;;;;;;;3.00;1.00;;;10.60;99.90;;;;;;5016715;28;20203;-84
2023/03/31 13:15:37;;;;;;;1.52;0.75;;;10.70;99.90;;;;;;5016412;28;20160;-85
2023/03/31 13:18:05;;;;;;;2.58;0.93;;;10.70;99.90;;;;;;5016457;28;20239;-84
2023/03/31 13:20:36;;;;;;;4.30;1.00;;;10.80;99.90;;;;;;5015080;28;20175;-84